Bowersville, Georgia
Current Conditions -  °F | °C
As of 2:55 PM on Wednesday 17 Dec 2014 (Local Time) from KTOC Reporting Station
Clear Clear  
Wind Chill: 61°   Ceiling: Unl
Heat Index: 61°   Visibility: 10mi
Dew Point: 33°   Wind: 3mph
Humidity: 35%   Direction: 230°SW
Pressure: 30.06"   Gusts: NA
Location:  34.37°N, 83.08°W
Report Text: KTOC 171955Z AUTO 23003KT 10SM CLR 16/01 A3006 RMK AO2 T01610006
Loading
Personal Weather Stations






























Interactive Weather Map New forecast layout! Learn more

10-Day Weather Forecast

Advertisements
Track Severe Weather on mobile